sensor_id;sensor_type;location;lat;lon;timestamp;temperature;humidity
13346;DHT22;6742;48.036;15.780;2024-03-02T00:01:35;7.70;99.90
13346;DHT22;6742;48.036;15.780;2024-03-02T00:04:03;7.70;99.90
13346;DHT22;6742;48.036;15.780;2024-03-02T00:06:34;7.60;99.90
13346;DHT22;6742;48.036;15.780;2024-03-02T00:09:01;7.50;99.90
13346;DHT22;6742;48.036;15.780;2024-03-02T00:11:28;7.40;99.90
13346;DHT22;6742;48.036;15.780;2024-03-02T00:13:55;7.40;99.90
13346;DHT22;6742;48.036;15.780;2024-03-02T00:16:22;7.30;99.90
13346;DHT22;6742;48.036;15.780;2024-03-02T00:18:49;7.20;99.90
13346;DHT22;6742;48.036;15.780;2024-03-02T00:21:16;7.20;99.90
13346;DHT22;6742;48.036;15.780;2024-03-02T00:23:48;7.20;99.90
13346;DHT22;6742;48.036;15.780;2024-03-02T00:26:17;7.30;99.90
13346;DHT22;6742;48.036;15.780;2024-03-02T00:28:44;7.30;99.90
13346;DHT22;6742;48.036;15.780;2024-03-02T00:31:12;7.40;99.90
13346;DHT22;6742;48.036;15.780;2024-03-02T00:33:42;7.20;99.90
13346;DHT22;6742;48.036;15.780;2024-03-02T00:36:10;7.20;99.90
13346;DHT22;6742;48.036;15.780;2024-03-02T00:38:44;7.20;99.90
13346;DHT22;6742;48.036;15.780;2024-03-02T00:41:17;7.10;99.90
13346;DHT22;6742;48.036;15.780;2024-03-02T00:43:58;7.10;99.90
13346;DHT22;6742;48.036;15.780;2024-03-02T00:46:26;7.10;99.90
13346;DHT22;6742;48.036;15.780;2024-03-02T00:48:56;7.20;99.90
13346;DHT22;6742;48.036;15.780;2024-03-02T00:51:25;7.20;99.90
13346;DHT22;6742;48.036;15.780;2024-03-02T00:53:53;7.30;99.90
13346;DHT22;6742;48.036;15.780;2024-03-02T00:56:24;7.30;99.90
13346;DHT22;6742;48.036;15.780;2024-03-02T00:58:52;7.30;99.90
13346;DHT22;6742;48.036;15.780;2024-03-02T01:01:19;7.30;99.90
13346;DHT22;6742;48.036;15.780;2024-03-02T01:03:47;7.30;99.90
13346;DHT22;6742;48.036;15.780;2024-03-02T01:06:14;7.30;99.90
13346;DHT22;6742;48.036;15.780;2024-03-02T01:08:42;7.20;99.90
13346;DHT22;6742;48.036;15.780;2024-03-02T01:11:09;7.20;99.90
13346;DHT22;6742;48.036;15.780;2024-03-02T01:13:37;7.10;99.90
13346;DHT22;6742;48.036;15.780;2024-03-02T01:16:04;7.00;99.90
13346;DHT22;6742;48.036;15.780;2024-03-02T01:18:32;6.80;99.90
13346;DHT22;6742;48.036;15.780;2024-03-02T01:20:59;6.70;99.90
13346;DHT22;6742;48.036;15.780;2024-03-02T01:23:27;6.60;99.90
13346;DHT22;6742;48.036;15.780;2024-03-02T01:25:54;6.60;99.90
13346;DHT22;6742;48.036;15.780;2024-03-02T01:28:21;6.70;99.90
13346;DHT22;6742;48.036;15.780;2024-03-02T01:30:49;6.70;99.90
13346;DHT22;6742;48.036;15.780;2024-03-02T01:33:17;6.80;99.90
13346;DHT22;6742;48.036;15.780;2024-03-02T01:35:44;6.80;99.90
13346;DHT22;6742;48.036;15.780;2024-03-02T01:38:11;6.80;99.90
13346;DHT22;6742;48.036;15.780;2024-03-02T01:40:38;6.90;99.90
13346;DHT22;6742;48.036;15.780;2024-03-02T01:43:05;6.90;99.90
13346;DHT22;6742;48.036;15.780;2024-03-02T01:45:33;6.90;99.90
13346;DHT22;6742;48.036;15.780;2024-03-02T01:48:02;6.90;99.90
13346;DHT22;6742;48.036;15.780;2024-03-02T01:50:31;6.90;99.90
13346;DHT22;6742;48.036;15.780;2024-03-02T01:52:59;6.80;99.90
13346;DHT22;6742;48.036;15.780;2024-03-02T01:55:26;6.80;99.90
13346;DHT22;6742;48.036;15.780;2024-03-02T01:57:54;6.80;99.90
13346;DHT22;6742;48.036;15.780;2024-03-02T02:00:22;6.80;99.90
13346;DHT22;6742;48.036;15.780;2024-03-02T02:02:50;6.90;99.90
13346;DHT22;6742;48.036;15.780;2024-03-02T02:05:18;6.90;99.90
13346;DHT22;6742;48.036;15.780;2024-03-02T02:07:45;6.90;99.90
13346;DHT22;6742;48.036;15.780;2024-03-02T02:10:13;6.90;99.90
13346;DHT22;6742;48.036;15.780;2024-03-02T02:12:40;6.90;99.90
13346;DHT22;6742;48.036;15.780;2024-03-02T02:15:22;6.80;99.90
13346;DHT22;6742;48.036;15.780;2024-03-02T02:17:49;6.70;99.90
13346;DHT22;6742;48.036;15.780;2024-03-02T02:20:18;6.70;99.90
13346;DHT22;6742;48.036;15.780;2024-03-02T02:23:00;6.60;99.90
13346;DHT22;6742;48.036;15.780;2024-03-02T02:25:28;6.60;99.90
13346;DHT22;6742;48.036;15.780;2024-03-02T02:27:55;6.60;99.90
13346;DHT22;6742;48.036;15.780;2024-03-02T02:30:24;6.50;99.90
13346;DHT22;6742;48.036;15.780;2024-03-02T02:32:51;6.50;99.90
13346;DHT22;6742;48.036;15.780;2024-03-02T02:35:18;6.50;99.90
13346;DHT22;6742;48.036;15.780;2024-03-02T02:37:46;6.50;99.90
13346;DHT22;6742;48.036;15.780;2024-03-02T02:40:15;6.40;99.90
13346;DHT22;6742;48.036;15.780;2024-03-02T02:42:44;6.40;99.90
13346;DHT22;6742;48.036;15.780;2024-03-02T02:45:11;6.40;99.90
13346;DHT22;6742;48.036;15.780;2024-03-02T02:47:39;6.40;99.90
13346;DHT22;6742;48.036;15.780;2024-03-02T02:50:07;6.30;99.90
13346;DHT22;6742;48.036;15.780;2024-03-02T02:52:35;6.30;99.90
13346;DHT22;6742;48.036;15.780;2024-03-02T02:55:06;6.30;99.90
13346;DHT22;6742;48.036;15.780;2024-03-02T02:57:35;6.30;99.90
13346;DHT22;6742;48.036;15.780;2024-03-02T03:00:06;6.30;99.90
13346;DHT22;6742;48.036;15.780;2024-03-02T03:02:39;6.40;99.90
13346;DHT22;6742;48.036;15.780;2024-03-02T03:05:08;6.30;99.90
13346;DHT22;6742;48.036;15.780;2024-03-02T03:07:35;6.30;99.90
13346;DHT22;6742;48.036;15.780;2024-03-02T03:10:04;6.30;99.90
13346;DHT22;6742;48.036;15.780;2024-03-02T03:12:32;6.30;99.90
13346;DHT22;6742;48.036;15.780;2024-03-02T03:15:01;6.40;99.90
13346;DHT22;6742;48.036;15.780;2024-03-02T03:17:28;6.40;99.90
13346;DHT22;6742;48.036;15.780;2024-03-02T03:19:55;6.30;99.90
13346;DHT22;6742;48.036;15.780;2024-03-02T03:22:22;6.20;99.90
13346;DHT22;6742;48.036;15.780;2024-03-02T03:24:49;6.10;99.90
13346;DHT22;6742;48.036;15.780;2024-03-02T03:27:16;6.20;99.90
13346;DHT22;6742;48.036;15.780;2024-03-02T03:29:43;6.20;99.90
13346;DHT22;6742;48.036;15.780;2024-03-02T03:32:11;6.20;99.90
13346;DHT22;6742;48.036;15.780;2024-03-02T03:34:39;6.30;99.90
13346;DHT22;6742;48.036;15.780;2024-03-02T03:37:06;6.30;99.90
13346;DHT22;6742;48.036;15.780;2024-03-02T03:39:34;6.30;99.90
13346;DHT22;6742;48.036;15.780;2024-03-02T03:42:01;6.30;99.90
13346;DHT22;6742;48.036;15.780;2024-03-02T03:44:28;6.30;99.90
13346;DHT22;6742;48.036;15.780;2024-03-02T03:46:55;6.30;99.90
13346;DHT22;6742;48.036;15.780;2024-03-02T03:49:23;6.30;99.90
13346;DHT22;6742;48.036;15.780;2024-03-02T03:51:50;6.20;99.90
13346;DHT22;6742;48.036;15.780;2024-03-02T03:54:17;6.20;99.90
13346;DHT22;6742;48.036;15.780;2024-03-02T03:56:44;6.20;99.90
13346;DHT22;6742;48.036;15.780;2024-03-02T03:59:11;6.20;99.90
13346;DHT22;6742;48.036;15.780;2024-03-02T04:01:38;6.20;99.90
13346;DHT22;6742;48.036;15.780;2024-03-02T04:04:05;6.00;99.90
13346;DHT22;6742;48.036;15.780;2024-03-02T04:06:33;6.00;99.90
13346;DHT22;6742;48.036;15.780;2024-03-02T04:09:00;6.00;99.90
13346;DHT22;6742;48.036;15.780;2024-03-02T04:11:29;5.90;99.90
13346;DHT22;6742;48.036;15.780;2024-03-02T04:13:57;5.70;99.90
13346;DHT22;6742;48.036;15.780;2024-03-02T04:16:23;5.80;99.90
13346;DHT22;6742;48.036;15.780;2024-03-02T04:18:50;5.80;99.90
13346;DHT22;6742;48.036;15.780;2024-03-02T04:21:17;5.90;99.90
13346;DHT22;6742;48.036;15.780;2024-03-02T04:23:46;5.90;99.90
13346;DHT22;6742;48.036;15.780;2024-03-02T04:26:13;5.90;99.90
13346;DHT22;6742;48.036;15.780;2024-03-02T04:28:45;5.70;99.90
13346;DHT22;6742;48.036;15.780;2024-03-02T04:31:12;5.60;99.90
13346;DHT22;6742;48.036;15.780;2024-03-02T04:33:39;5.40;99.90
13346;DHT22;6742;48.036;15.780;2024-03-02T04:36:06;5.40;99.90
13346;DHT22;6742;48.036;15.780;2024-03-02T04:38:35;5.40;99.90
13346;DHT22;6742;48.036;15.780;2024-03-02T04:41:04;5.40;99.90
13346;DHT22;6742;48.036;15.780;2024-03-02T04:43:32;5.50;99.90
13346;DHT22;6742;48.036;15.780;2024-03-02T04:45:59;5.60;99.90
13346;DHT22;6742;48.036;15.780;2024-03-02T04:48:26;5.60;99.90
13346;DHT22;6742;48.036;15.780;2024-03-02T04:50:53;5.60;99.90
13346;DHT22;6742;48.036;15.780;2024-03-02T04:53:20;5.60;99.90
13346;DHT22;6742;48.036;15.780;2024-03-02T04:55:48;5.60;99.90
13346;DHT22;6742;48.036;15.780;2024-03-02T04:58:54;5.50;99.90
13346;DHT22;6742;48.036;15.780;2024-03-02T05:01:22;5.60;99.90
13346;DHT22;6742;48.036;15.780;2024-03-02T05:03:49;5.60;99.90
13346;DHT22;6742;48.036;15.780;2024-03-02T05:06:16;5.60;99.90
13346;DHT22;6742;48.036;15.780;2024-03-02T05:08:43;5.50;99.90
13346;DHT22;6742;48.036;15.780;2024-03-02T05:11:10;5.30;99.90
13346;DHT22;6742;48.036;15.780;2024-03-02T05:14:15;5.20;99.90
13346;DHT22;6742;48.036;15.780;2024-03-02T05:16:42;5.20;99.90
13346;DHT22;6742;48.036;15.780;2024-03-02T05:19:09;5.30;99.90
13346;DHT22;6742;48.036;15.780;2024-03-02T05:21:36;5.30;99.90
13346;DHT22;6742;48.036;15.780;2024-03-02T05:24:03;5.30;99.90
13346;DHT22;6742;48.036;15.780;2024-03-02T05:26:30;5.30;99.90
13346;DHT22;6742;48.036;15.780;2024-03-02T05:28:57;5.30;99.90
13346;DHT22;6742;48.036;15.780;2024-03-02T05:31:28;5.30;99.90
13346;DHT22;6742;48.036;15.780;2024-03-02T05:33:55;5.20;99.90
13346;DHT22;6742;48.036;15.780;2024-03-02T05:36:22;5.20;99.90
13346;DHT22;6742;48.036;15.780;2024-03-02T05:38:48;5.10;99.90
13346;DHT22;6742;48.036;15.780;2024-03-02T05:41:15;5.10;99.90
13346;DHT22;6742;48.036;15.780;2024-03-02T05:43:42;5.00;99.90
13346;DHT22;6742;48.036;15.780;2024-03-02T05:46:09;4.70;99.90
13346;DHT22;6742;48.036;15.780;2024-03-02T05:48:38;4.60;99.90
13346;DHT22;6742;48.036;15.780;2024-03-02T05:51:05;4.50;99.90
13346;DHT22;6742;48.036;15.780;2024-03-02T05:53:32;4.60;99.90
13346;DHT22;6742;48.036;15.780;2024-03-02T05:55:59;4.70;99.90
13346;DHT22;6742;48.036;15.780;2024-03-02T05:58:26;4.80;99.90
13346;DHT22;6742;48.036;15.780;2024-03-02T06:01:03;4.90;99.90
13346;DHT22;6742;48.036;15.780;2024-03-02T06:03:31;4.90;99.90
13346;DHT22;6742;48.036;15.780;2024-03-02T06:05:59;4.90;99.90
13346;DHT22;6742;48.036;15.780;2024-03-02T06:08:27;5.00;99.90
13346;DHT22;6742;48.036;15.780;2024-03-02T06:10:54;5.10;99.90
13346;DHT22;6742;48.036;15.780;2024-03-02T06:13:22;5.20;99.90
13346;DHT22;6742;48.036;15.780;2024-03-02T06:15:48;5.30;99.90
13346;DHT22;6742;48.036;15.780;2024-03-02T06:18:15;5.40;99.90
13346;DHT22;6742;48.036;15.780;2024-03-02T06:20:42;5.50;99.90
13346;DHT22;6742;48.036;15.780;2024-03-02T06:23:11;5.60;99.90
13346;DHT22;6742;48.036;15.780;2024-03-02T06:25:38;5.80;99.90
13346;DHT22;6742;48.036;15.780;2024-03-02T06:28:05;5.90;99.90
13346;DHT22;6742;48.036;15.780;2024-03-02T06:30:33;6.20;99.90
13346;DHT22;6742;48.036;15.780;2024-03-02T06:32:59;6.40;99.90
13346;DHT22;6742;48.036;15.780;2024-03-02T06:35:26;6.70;99.90
13346;DHT22;6742;48.036;15.780;2024-03-02T06:37:53;6.70;99.90
13346;DHT22;6742;48.036;15.780;2024-03-02T06:40:22;6.70;99.90
13346;DHT22;6742;48.036;15.780;2024-03-02T06:42:48;6.70;99.90
13346;DHT22;6742;48.036;15.780;2024-03-02T06:45:15;6.80;99.90
13346;DHT22;6742;48.036;15.780;2024-03-02T06:47:42;7.10;99.90
13346;DHT22;6742;48.036;15.780;2024-03-02T06:50:10;7.10;99.90
13346;DHT22;6742;48.036;15.780;2024-03-02T06:52:36;7.30;99.90
13346;DHT22;6742;48.036;15.780;2024-03-02T06:55:05;7.70;99.90
13346;DHT22;6742;48.036;15.780;2024-03-02T06:57:33;8.10;99.90
13346;DHT22;6742;48.036;15.780;2024-03-02T07:00:00;8.70;99.90
13346;DHT22;6742;48.036;15.780;2024-03-02T07:02:30;9.20;99.90
13346;DHT22;6742;48.036;15.780;2024-03-02T07:04:58;9.50;99.90
13346;DHT22;6742;48.036;15.780;2024-03-02T07:07:24;9.80;99.90
13346;DHT22;6742;48.036;15.780;2024-03-02T07:09:51;10.10;99.90
13346;DHT22;6742;48.036;15.780;2024-03-02T07:12:18;10.00;99.90
13346;DHT22;6742;48.036;15.780;2024-03-02T07:14:47;10.10;99.90
13346;DHT22;6742;48.036;15.780;2024-03-02T07:17:31;10.10;99.90
13346;DHT22;6742;48.036;15.780;2024-03-02T07:19:58;10.20;99.90
13346;DHT22;6742;48.036;15.780;2024-03-02T07:22:25;10.20;99.90
13346;DHT22;6742;48.036;15.780;2024-03-02T07:24:52;10.30;99.90
13346;DHT22;6742;48.036;15.780;2024-03-02T07:27:19;10.30;99.90
13346;DHT22;6742;48.036;15.780;2024-03-02T07:29:47;10.10;99.90
13346;DHT22;6742;48.036;15.780;2024-03-02T07:32:14;10.00;99.90
13346;DHT22;6742;48.036;15.780;2024-03-02T07:34:41;10.30;99.90
13346;DHT22;6742;48.036;15.780;2024-03-02T07:37:08;10.70;99.90
13346;DHT22;6742;48.036;15.780;2024-03-02T07:39:35;10.90;99.90
13346;DHT22;6742;48.036;15.780;2024-03-02T07:42:03;10.90;99.90
13346;DHT22;6742;48.036;15.780;2024-03-02T07:44:29;10.60;99.90
13346;DHT22;6742;48.036;15.780;2024-03-02T07:46:58;10.30;99.90
13346;DHT22;6742;48.036;15.780;2024-03-02T07:49:25;10.60;99.90
13346;DHT22;6742;48.036;15.780;2024-03-02T07:51:52;11.10;99.90
13346;DHT22;6742;48.036;15.780;2024-03-02T07:54:19;11.50;99.90
13346;DHT22;6742;48.036;15.780;2024-03-02T07:56:45;11.50;99.90
13346;DHT22;6742;48.036;15.780;2024-03-02T07:59:13;11.40;99.90
13346;DHT22;6742;48.036;15.780;2024-03-02T08:01:40;11.50;99.90
13346;DHT22;6742;48.036;15.780;2024-03-02T08:04:08;11.80;99.90
13346;DHT22;6742;48.036;15.780;2024-03-02T08:06:35;12.00;99.90
13346;DHT22;6742;48.036;15.780;2024-03-02T08:09:02;12.30;99.90
13346;DHT22;6742;48.036;15.780;2024-03-02T08:11:34;12.50;99.90
13346;DHT22;6742;48.036;15.780;2024-03-02T08:14:01;12.50;99.90
13346;DHT22;6742;48.036;15.780;2024-03-02T08:16:27;12.70;99.90
13346;DHT22;6742;48.036;15.780;2024-03-02T08:18:54;12.60;99.90
13346;DHT22;6742;48.036;15.780;2024-03-02T08:21:25;12.70;99.90
13346;DHT22;6742;48.036;15.780;2024-03-02T08:23:52;12.80;99.90
13346;DHT22;6742;48.036;15.780;2024-03-02T08:26:19;12.80;99.90
13346;DHT22;6742;48.036;15.780;2024-03-02T08:28:46;12.70;99.90
13346;DHT22;6742;48.036;15.780;2024-03-02T08:31:13;12.80;99.90
13346;DHT22;6742;48.036;15.780;2024-03-02T08:33:39;12.70;99.90
13346;DHT22;6742;48.036;15.780;2024-03-02T08:36:08;12.50;99.90
13346;DHT22;6742;48.036;15.780;2024-03-02T08:38:37;12.60;99.90
13346;DHT22;6742;48.036;15.780;2024-03-02T08:41:04;12.60;99.90
13346;DHT22;6742;48.036;15.780;2024-03-02T08:43:31;12.30;99.90
13346;DHT22;6742;48.036;15.780;2024-03-02T08:45:58;12.00;99.90
13346;DHT22;6742;48.036;15.780;2024-03-02T08:48:25;12.10;99.90
13346;DHT22;6742;48.036;15.780;2024-03-02T08:50:52;12.20;99.90
13346;DHT22;6742;48.036;15.780;2024-03-02T08:53:19;12.40;99.90
13346;DHT22;6742;48.036;15.780;2024-03-02T08:55:47;12.40;99.90
13346;DHT22;6742;48.036;15.780;2024-03-02T08:58:14;12.30;99.90
13346;DHT22;6742;48.036;15.780;2024-03-02T09:00:41;12.10;99.90
13346;DHT22;6742;48.036;15.780;2024-03-02T09:03:09;11.90;99.90
13346;DHT22;6742;48.036;15.780;2024-03-02T09:05:36;11.90;99.90
13346;DHT22;6742;48.036;15.780;2024-03-02T09:08:04;11.80;99.90
13346;DHT22;6742;48.036;15.780;2024-03-02T09:10:31;11.90;99.90
13346;DHT22;6742;48.036;15.780;2024-03-02T09:12:59;11.90;99.90
13346;DHT22;6742;48.036;15.780;2024-03-02T09:15:26;12.00;99.90
13346;DHT22;6742;48.036;15.780;2024-03-02T09:17:53;12.10;99.90
13346;DHT22;6742;48.036;15.780;2024-03-02T09:20:20;12.30;99.90
13346;DHT22;6742;48.036;15.780;2024-03-02T09:22:51;12.50;99.90
13346;DHT22;6742;48.036;15.780;2024-03-02T09:25:18;12.30;99.90
13346;DHT22;6742;48.036;15.780;2024-03-02T09:27:45;12.30;99.90
13346;DHT22;6742;48.036;15.780;2024-03-02T09:30:14;12.30;99.90
13346;DHT22;6742;48.036;15.780;2024-03-02T09:32:41;12.40;99.90
13346;DHT22;6742;48.036;15.780;2024-03-02T09:35:08;12.40;99.90
13346;DHT22;6742;48.036;15.780;2024-03-02T09:37:35;12.60;99.90
13346;DHT22;6742;48.036;15.780;2024-03-02T09:40:03;12.60;99.90
13346;DHT22;6742;48.036;15.780;2024-03-02T09:42:30;12.60;99.90
13346;DHT22;6742;48.036;15.780;2024-03-02T09:44:58;12.70;99.90
13346;DHT22;6742;48.036;15.780;2024-03-02T09:47:26;12.90;99.90
13346;DHT22;6742;48.036;15.780;2024-03-02T09:49:53;13.00;99.90
13346;DHT22;6742;48.036;15.780;2024-03-02T09:52:21;12.80;99.90
13346;DHT22;6742;48.036;15.780;2024-03-02T09:54:49;12.50;99.90
13346;DHT22;6742;48.036;15.780;2024-03-02T09:57:16;12.60;99.90
13346;DHT22;6742;48.036;15.780;2024-03-02T09:59:43;12.90;99.90
13346;DHT22;6742;48.036;15.780;2024-03-02T10:02:11;13.10;99.90
13346;DHT22;6742;48.036;15.780;2024-03-02T10:04:39;13.20;99.90
13346;DHT22;6742;48.036;15.780;2024-03-02T10:07:11;13.40;99.90
13346;DHT22;6742;48.036;15.780;2024-03-02T10:09:38;13.50;99.90
13346;DHT22;6742;48.036;15.780;2024-03-02T10:12:06;13.50;99.90
13346;DHT22;6742;48.036;15.780;2024-03-02T10:14:33;13.70;99.90
13346;DHT22;6742;48.036;15.780;2024-03-02T10:17:04;14.10;99.90
13346;DHT22;6742;48.036;15.780;2024-03-02T10:19:32;14.30;99.90
13346;DHT22;6742;48.036;15.780;2024-03-02T10:22:02;14.40;99.90
13346;DHT22;6742;48.036;15.780;2024-03-02T10:24:35;14.20;99.90
13346;DHT22;6742;48.036;15.780;2024-03-02T10:27:07;14.60;99.90
13346;DHT22;6742;48.036;15.780;2024-03-02T10:29:37;14.50;99.90
13346;DHT22;6742;48.036;15.780;2024-03-02T10:32:05;14.50;99.90
13346;DHT22;6742;48.036;15.780;2024-03-02T10:34:35;14.70;99.90
13346;DHT22;6742;48.036;15.780;2024-03-02T10:37:05;14.70;99.90
13346;DHT22;6742;48.036;15.780;2024-03-02T10:39:34;14.70;99.90
13346;DHT22;6742;48.036;15.780;2024-03-02T10:42:04;14.70;99.90
13346;DHT22;6742;48.036;15.780;2024-03-02T10:44:32;14.70;99.90
13346;DHT22;6742;48.036;15.780;2024-03-02T10:47:01;14.90;99.90
13346;DHT22;6742;48.036;15.780;2024-03-02T10:49:29;14.50;99.90
13346;DHT22;6742;48.036;15.780;2024-03-02T10:51:57;14.50;99.90
13346;DHT22;6742;48.036;15.780;2024-03-02T10:54:25;14.80;99.90
13346;DHT22;6742;48.036;15.780;2024-03-02T10:56:56;14.90;99.90
13346;DHT22;6742;48.036;15.780;2024-03-02T10:59:27;15.10;99.90
13346;DHT22;6742;48.036;15.780;2024-03-02T11:01:57;15.10;99.90
13346;DHT22;6742;48.036;15.780;2024-03-02T11:04:26;15.20;99.90
13346;DHT22;6742;48.036;15.780;2024-03-02T11:06:58;15.10;99.90
13346;DHT22;6742;48.036;15.780;2024-03-02T11:09:28;14.80;99.90
13346;DHT22;6742;48.036;15.780;2024-03-02T11:12:02;14.80;99.90
13346;DHT22;6742;48.036;15.780;2024-03-02T11:14:31;14.80;99.90
13346;DHT22;6742;48.036;15.780;2024-03-02T11:17:00;14.60;99.90
13346;DHT22;6742;48.036;15.780;2024-03-02T11:19:29;14.60;99.90
13346;DHT22;6742;48.036;15.780;2024-03-02T11:21:57;14.60;99.90
13346;DHT22;6742;48.036;15.780;2024-03-02T11:24:35;14.40;99.90
13346;DHT22;6742;48.036;15.780;2024-03-02T11:27:03;14.30;99.90
13346;DHT22;6742;48.036;15.780;2024-03-02T11:29:50;14.50;99.90
13346;DHT22;6742;48.036;15.780;2024-03-02T11:32:20;14.70;99.90
13346;DHT22;6742;48.036;15.780;2024-03-02T11:34:49;14.80;99.90
13346;DHT22;6742;48.036;15.780;2024-03-02T11:37:17;14.80;99.90
13346;DHT22;6742;48.036;15.780;2024-03-02T11:39:49;15.00;99.90
13346;DHT22;6742;48.036;15.780;2024-03-02T11:42:16;15.00;99.90
13346;DHT22;6742;48.036;15.780;2024-03-02T11:44:45;15.20;99.90
13346;DHT22;6742;48.036;15.780;2024-03-02T11:47:14;15.30;99.90
13346;DHT22;6742;48.036;15.780;2024-03-02T11:49:42;15.30;99.90
13346;DHT22;6742;48.036;15.780;2024-03-02T11:52:11;15.30;99.90
13346;DHT22;6742;48.036;15.780;2024-03-02T11:54:39;15.30;99.90
13346;DHT22;6742;48.036;15.780;2024-03-02T11:57:14;15.30;99.90
13346;DHT22;6742;48.036;15.780;2024-03-02T11:59:41;15.00;99.90
13346;DHT22;6742;48.036;15.780;2024-03-02T12:02:14;15.10;99.90
13346;DHT22;6742;48.036;15.780;2024-03-02T12:04:42;15.00;99.90
13346;DHT22;6742;48.036;15.780;2024-03-02T12:07:11;14.90;99.90
13346;DHT22;6742;48.036;15.780;2024-03-02T12:09:38;14.60;99.90
13346;DHT22;6742;48.036;15.780;2024-03-02T12:12:05;14.40;99.90
13346;DHT22;6742;48.036;15.780;2024-03-02T12:14:35;14.50;99.90
13346;DHT22;6742;48.036;15.780;2024-03-02T12:17:03;14.50;99.90
13346;DHT22;6742;48.036;15.780;2024-03-02T12:19:31;14.40;99.90
13346;DHT22;6742;48.036;15.780;2024-03-02T12:21:58;14.30;99.90
13346;DHT22;6742;48.036;15.780;2024-03-02T12:24:27;14.40;99.90
13346;DHT22;6742;48.036;15.780;2024-03-02T12:26:54;14.50;99.90
13346;DHT22;6742;48.036;15.780;2024-03-02T12:29:22;14.50;99.90
13346;DHT22;6742;48.036;15.780;2024-03-02T12:31:51;14.40;99.90
13346;DHT22;6742;48.036;15.780;2024-03-02T12:34:19;14.30;99.90
13346;DHT22;6742;48.036;15.780;2024-03-02T12:36:46;14.30;99.90
13346;DHT22;6742;48.036;15.780;2024-03-02T12:39:16;14.40;99.90
13346;DHT22;6742;48.036;15.780;2024-03-02T12:41:43;14.60;99.90
13346;DHT22;6742;48.036;15.780;2024-03-02T12:44:10;14.50;99.90
13346;DHT22;6742;48.036;15.780;2024-03-02T12:46:37;14.70;99.90
13346;DHT22;6742;48.036;15.780;2024-03-02T12:49:10;14.20;99.90
13346;DHT22;6742;48.036;15.780;2024-03-02T12:51:38;14.10;99.90
13346;DHT22;6742;48.036;15.780;2024-03-02T12:54:06;14.10;99.90
13346;DHT22;6742;48.036;15.780;2024-03-02T12:56:34;14.10;99.90
13346;DHT22;6742;48.036;15.780;2024-03-02T12:59:01;14.10;99.90
13346;DHT22;6742;48.036;15.780;2024-03-02T13:01:28;14.10;99.90
13346;DHT22;6742;48.036;15.780;2024-03-02T13:03:57;14.10;99.90
13346;DHT22;6742;48.036;15.780;2024-03-02T13:06:26;13.90;99.90
13346;DHT22;6742;48.036;15.780;2024-03-02T13:08:55;13.90;99.90
13346;DHT22;6742;48.036;15.780;2024-03-02T13:11:22;13.90;99.90
13346;DHT22;6742;48.036;15.780;2024-03-02T13:13:50;13.80;99.90
13346;DHT22;6742;48.036;15.780;2024-03-02T13:16:18;13.80;99.90
13346;DHT22;6742;48.036;15.780;2024-03-02T13:18:45;13.80;99.90
13346;DHT22;6742;48.036;15.780;2024-03-02T13:21:12;13.60;99.90
13346;DHT22;6742;48.036;15.780;2024-03-02T13:23:41;13.60;99.90
13346;DHT22;6742;48.036;15.780;2024-03-02T13:26:08;13.50;99.90
13346;DHT22;6742;48.036;15.780;2024-03-02T13:28:36;13.50;99.90
13346;DHT22;6742;48.036;15.780;2024-03-02T13:31:04;13.40;99.90
13346;DHT22;6742;48.036;15.780;2024-03-02T13:33:32;13.20;99.90
13346;DHT22;6742;48.036;15.780;2024-03-02T13:35:59;13.10;99.90
13346;DHT22;6742;48.036;15.780;2024-03-02T13:38:27;13.00;99.90
13346;DHT22;6742;48.036;15.780;2024-03-02T13:40:55;12.90;99.90
13346;DHT22;6742;48.036;15.780;2024-03-02T13:43:22;12.90;99.90
13346;DHT22;6742;48.036;15.780;2024-03-02T13:45:50;12.90;99.90
13346;DHT22;6742;48.036;15.780;2024-03-02T13:48:17;12.90;99.90
13346;DHT22;6742;48.036;15.780;2024-03-02T13:50:45;12.80;99.90
13346;DHT22;6742;48.036;15.780;2024-03-02T13:53:12;12.80;99.90
13346;DHT22;6742;48.036;15.780;2024-03-02T13:55:39;12.80;99.90
13346;DHT22;6742;48.036;15.780;2024-03-02T13:58:09;12.70;99.90
13346;DHT22;6742;48.036;15.780;2024-03-02T14:00:36;12.70;99.90
13346;DHT22;6742;48.036;15.780;2024-03-02T14:03:04;12.80;99.90
13346;DHT22;6742;48.036;15.780;2024-03-02T14:05:32;12.70;99.90
13346;DHT22;6742;48.036;15.780;2024-03-02T14:07:59;12.60;99.90
13346;DHT22;6742;48.036;15.780;2024-03-02T14:10:26;12.40;99.90
13346;DHT22;6742;48.036;15.780;2024-03-02T14:12:54;12.30;99.90
13346;DHT22;6742;48.036;15.780;2024-03-02T14:15:23;12.30;99.90
13346;DHT22;6742;48.036;15.780;2024-03-02T14:17:50;12.10;99.90
13346;DHT22;6742;48.036;15.780;2024-03-02T14:20:17;11.90;99.90
13346;DHT22;6742;48.036;15.780;2024-03-02T14:22:48;11.90;99.90
13346;DHT22;6742;48.036;15.780;2024-03-02T14:25:15;11.90;99.90
13346;DHT22;6742;48.036;15.780;2024-03-02T14:27:43;11.90;99.90
13346;DHT22;6742;48.036;15.780;2024-03-02T14:30:11;11.80;99.90
13346;DHT22;6742;48.036;15.780;2024-03-02T14:32:39;11.80;99.90
13346;DHT22;6742;48.036;15.780;2024-03-02T14:35:07;11.70;99.90
13346;DHT22;6742;48.036;15.780;2024-03-02T14:37:37;11.60;99.90
13346;DHT22;6742;48.036;15.780;2024-03-02T14:40:05;11.40;99.90
13346;DHT22;6742;48.036;15.780;2024-03-02T14:42:35;11.50;99.90
13346;DHT22;6742;48.036;15.780;2024-03-02T14:45:02;11.40;99.90
13346;DHT22;6742;48.036;15.780;2024-03-02T14:47:32;11.50;99.90
13346;DHT22;6742;48.036;15.780;2024-03-02T14:50:00;11.30;99.90
13346;DHT22;6742;48.036;15.780;2024-03-02T14:52:30;11.30;99.90
13346;DHT22;6742;48.036;15.780;2024-03-02T14:54:57;11.20;99.90
13346;DHT22;6742;48.036;15.780;2024-03-02T14:57:24;11.20;99.90
13346;DHT22;6742;48.036;15.780;2024-03-02T14:59:51;11.20;99.90
13346;DHT22;6742;48.036;15.780;2024-03-02T15:02:20;11.20;99.90
13346;DHT22;6742;48.036;15.780;2024-03-02T15:04:47;11.20;99.90
13346;DHT22;6742;48.036;15.780;2024-03-02T15:07:15;11.20;99.90
13346;DHT22;6742;48.036;15.780;2024-03-02T15:09:42;11.10;99.90
13346;DHT22;6742;48.036;15.780;2024-03-02T15:12:10;11.10;99.90
13346;DHT22;6742;48.036;15.780;2024-03-02T15:14:38;11.00;99.90
13346;DHT22;6742;48.036;15.780;2024-03-02T15:17:12;10.90;99.90
13346;DHT22;6742;48.036;15.780;2024-03-02T15:19:41;10.90;99.90
13346;DHT22;6742;48.036;15.780;2024-03-02T15:22:08;10.90;99.90
13346;DHT22;6742;48.036;15.780;2024-03-02T15:24:37;10.80;99.90
13346;DHT22;6742;48.036;15.780;2024-03-02T15:27:05;10.80;99.90
13346;DHT22;6742;48.036;15.780;2024-03-02T15:29:34;10.80;99.90
13346;DHT22;6742;48.036;15.780;2024-03-02T15:32:01;10.80;99.90
13346;DHT22;6742;48.036;15.780;2024-03-02T15:34:30;10.70;99.90
13346;DHT22;6742;48.036;15.780;2024-03-02T15:36:57;10.80;99.90
13346;DHT22;6742;48.036;15.780;2024-03-02T15:39:25;10.70;99.90
13346;DHT22;6742;48.036;15.780;2024-03-02T15:41:53;10.70;99.90
13346;DHT22;6742;48.036;15.780;2024-03-02T15:44:20;10.70;99.90